createdAt,value
2023-04-13T00:00:30.445Z,5.70
2023-04-13T00:02:58.535Z,5.70
2023-04-13T00:05:28.160Z,5.70
2023-04-13T00:07:56.456Z,5.70
2023-04-13T00:10:25.774Z,5.70
2023-04-13T00:12:53.598Z,5.60
2023-04-13T00:15:21.473Z,5.60
2023-04-13T00:17:49.299Z,5.70
2023-04-13T00:20:17.823Z,5.60
2023-04-13T00:22:46.967Z,5.70
2023-04-13T00:25:15.853Z,5.70
2023-04-13T00:27:45.565Z,5.70
2023-04-13T00:30:15.732Z,5.70
2023-04-13T00:32:45.652Z,5.70
2023-04-13T00:35:18.574Z,5.60
2023-04-13T00:37:47.075Z,5.60
2023-04-13T00:40:15.967Z,5.60
2023-04-13T00:42:46.195Z,5.60
2023-04-13T00:45:14.724Z,5.60
2023-04-13T00:47:46.751Z,5.60
2023-04-13T00:50:15.814Z,5.60
2023-04-13T00:52:43.815Z,5.60
2023-04-13T00:55:13.144Z,5.60
2023-04-13T00:57:41.886Z,5.60
2023-04-13T01:00:13.420Z,5.50
2023-04-13T01:02:42.426Z,5.50
2023-04-13T01:05:12.368Z,5.50
2023-04-13T01:07:47.340Z,5.50
2023-04-13T01:10:22.042Z,5.50
2023-04-13T01:12:56.640Z,5.50
2023-04-13T01:15:27.345Z,5.50
2023-04-13T01:17:59.819Z,5.50
2023-04-13T01:20:29.253Z,5.40
2023-04-13T01:22:59.561Z,5.40
2023-04-13T01:25:38.941Z,5.50
2023-04-13T01:28:12.499Z,5.40
2023-04-13T01:30:42.474Z,5.50
2023-04-13T01:33:11.715Z,5.40
2023-04-13T01:35:40.607Z,5.50
2023-04-13T01:38:08.701Z,5.50
2023-04-13T01:40:40.664Z,5.60
2023-04-13T01:43:09.826Z,5.60
2023-04-13T01:45:47.070Z,5.50
2023-04-13T01:48:19.220Z,5.50
2023-04-13T01:50:51.978Z,5.60
2023-04-13T01:53:24.974Z,5.60
2023-04-13T01:55:53.431Z,5.60
2023-04-13T01:58:28.124Z,5.60
2023-04-13T02:00:56.720Z,5.60
2023-04-13T02:03:24.650Z,5.60
2023-04-13T02:05:52.698Z,5.70
2023-04-13T02:08:20.829Z,5.70
2023-04-13T02:10:48.956Z,5.70
2023-04-13T02:13:16.876Z,5.70
2023-04-13T02:15:46.865Z,5.70
2023-04-13T02:18:14.695Z,5.70
2023-04-13T02:20:45.794Z,5.70
2023-04-13T02:23:15.702Z,5.70
2023-04-13T02:25:48.011Z,5.70
2023-04-13T02:28:17.883Z,5.70
2023-04-13T02:30:48.055Z,5.80
2023-04-13T02:33:15.891Z,5.80
2023-04-13T02:35:43.785Z,5.80
2023-04-13T02:38:11.726Z,5.90
2023-04-13T02:40:39.588Z,6.00
2023-04-13T02:43:07.421Z,6.10
2023-04-13T02:45:35.314Z,6.20
2023-04-13T02:48:05.402Z,6.20
2023-04-13T02:50:33.263Z,6.30
2023-04-13T02:53:01.088Z,6.30
2023-04-13T02:55:28.923Z,6.40
2023-04-13T02:57:57.980Z,6.40
2023-04-13T03:00:26.128Z,6.40
2023-04-13T03:02:54.734Z,6.40
2023-04-13T03:05:24.132Z,6.40
2023-04-13T03:07:51.998Z,6.40
2023-04-13T03:10:20.050Z,6.40
2023-04-13T03:12:47.892Z,6.40
2023-04-13T03:15:16.073Z,6.50
2023-04-13T03:17:44.112Z,6.50
2023-04-13T03:20:13.456Z,6.40
2023-04-13T03:22:43.230Z,6.50
2023-04-13T03:25:11.090Z,6.40
2023-04-13T03:27:39.063Z,6.40
2023-04-13T03:30:08.856Z,6.40
2023-04-13T03:32:37.004Z,6.40
2023-04-13T03:35:05.052Z,6.50
2023-04-13T03:37:40.183Z,6.50
2023-04-13T03:40:11.122Z,6.50
2023-04-13T03:42:39.405Z,6.50
2023-04-13T03:45:08.164Z,6.60
2023-04-13T03:47:36.080Z,6.60
2023-04-13T03:50:04.834Z,6.70
2023-04-13T03:52:32.623Z,6.70
2023-04-13T03:55:00.882Z,6.70
2023-04-13T03:57:30.696Z,6.70
2023-04-13T03:59:58.533Z,6.80
2023-04-13T04:02:26.484Z,6.80
2023-04-13T04:04:54.492Z,6.90
2023-04-13T04:07:23.688Z,6.90
2023-04-13T04:09:51.543Z,6.90
2023-04-13T04:12:19.363Z,6.90
2023-04-13T04:14:48.482Z,6.90
2023-04-13T04:17:16.337Z,6.90
2023-04-13T04:19:44.146Z,6.90
2023-04-13T04:22:13.869Z,7.00
2023-04-13T04:24:42.366Z,7.00
2023-04-13T04:27:14.314Z,7.00
2023-04-13T04:29:49.169Z,7.00
2023-04-13T04:32:18.642Z,7.00
2023-04-13T04:34:47.354Z,7.00
2023-04-13T04:37:20.606Z,7.00
2023-04-13T04:39:48.986Z,7.00
2023-04-13T04:42:18.703Z,7.00
2023-04-13T04:44:49.721Z,7.00
2023-04-13T04:47:19.596Z,7.00
2023-04-13T04:49:47.595Z,6.90
2023-04-13T04:52:15.717Z,6.90
2023-04-13T04:54:43.775Z,7.00
2023-04-13T04:57:12.330Z,7.00
2023-04-13T04:59:40.818Z,6.90
2023-04-13T05:02:09.060Z,7.00
2023-04-13T05:04:39.634Z,7.00
2023-04-13T05:07:07.559Z,7.00
2023-04-13T05:09:37.012Z,7.00
2023-04-13T05:12:05.168Z,7.00
2023-04-13T05:14:32.955Z,7.00
2023-04-13T05:17:01.719Z,7.10
2023-04-13T05:19:29.543Z,7.10
2023-04-13T05:22:01.000Z,7.10
2023-04-13T05:24:28.891Z,7.10
2023-04-13T05:26:57.688Z,7.20
2023-04-13T05:29:25.554Z,7.20
2023-04-13T05:31:53.472Z,7.20
2023-04-13T05:34:21.605Z,7.20
2023-04-13T05:36:50.227Z,7.30
2023-04-13T05:39:19.446Z,7.30
2023-04-13T05:41:47.334Z,7.30
2023-04-13T05:44:15.181Z,7.30
2023-04-13T05:46:43.101Z,7.30
2023-04-13T05:49:11.568Z,7.30
2023-04-13T05:51:39.654Z,7.30
2023-04-13T05:54:09.914Z,7.30
2023-04-13T05:56:39.060Z,7.30
2023-04-13T05:59:07.103Z,7.30
2023-04-13T06:01:35.017Z,7.30
2023-04-13T06:04:03.681Z,7.30
2023-04-13T06:06:31.741Z,7.30
2023-04-13T06:08:59.973Z,7.30
2023-04-13T06:11:28.106Z,7.40
2023-04-13T06:13:59.916Z,7.40
2023-04-13T06:16:28.084Z,7.40
2023-04-13T06:18:56.018Z,7.50
2023-04-13T06:21:23.925Z,7.50
2023-04-13T06:23:51.756Z,7.50
2023-04-13T06:26:19.953Z,7.50
2023-04-13T06:28:47.812Z,7.60
2023-04-13T06:31:17.011Z,7.60
2023-04-13T06:33:44.825Z,7.60
2023-04-13T06:36:13.049Z,7.60
2023-04-13T06:38:40.984Z,7.70
2023-04-13T06:41:08.790Z,7.80
2023-04-13T06:43:36.954Z,7.90
2023-04-13T06:46:05.292Z,7.90
2023-04-13T06:48:34.617Z,8.00
2023-04-13T06:51:02.559Z,8.10
2023-04-13T06:53:30.954Z,8.20
2023-04-13T06:55:58.854Z,8.40
2023-04-13T06:58:27.000Z,8.60
2023-04-13T07:00:54.891Z,8.60
2023-04-13T07:03:22.905Z,8.70
2023-04-13T07:05:52.147Z,8.60
2023-04-13T07:08:20.148Z,8.60
2023-04-13T07:10:47.932Z,8.50
2023-04-13T07:13:15.897Z,8.40
2023-04-13T07:15:43.814Z,8.40
2023-04-13T07:18:11.657Z,8.30
2023-04-13T07:20:39.759Z,8.30
2023-04-13T07:23:09.910Z,8.30
2023-04-13T07:25:37.928Z,8.30
2023-04-13T07:28:06.023Z,8.30
2023-04-13T07:30:33.873Z,8.30
2023-04-13T07:33:01.756Z,8.30
2023-04-13T07:35:29.600Z,8.20
2023-04-13T07:37:57.410Z,8.20
2023-04-13T07:40:26.528Z,8.20
2023-04-13T07:42:54.303Z,8.10
2023-04-13T07:45:22.141Z,8.10
2023-04-13T07:47:50.547Z,8.10
2023-04-13T07:50:18.724Z,8.10
2023-04-13T07:52:46.701Z,8.10
2023-04-13T07:55:14.513Z,8.10
2023-04-13T07:57:43.711Z,8.10
2023-04-13T08:00:14.175Z,8.10
2023-04-13T08:02:42.361Z,8.10
2023-04-13T08:05:11.632Z,8.10
2023-04-13T08:07:39.593Z,8.00
2023-04-13T08:10:08.720Z,8.00
2023-04-13T08:12:36.627Z,8.00
2023-04-13T08:15:06.710Z,8.10
2023-04-13T08:17:34.929Z,8.20
2023-04-13T08:20:04.016Z,8.20
2023-04-13T08:22:31.975Z,8.30
2023-04-13T08:24:59.963Z,8.20
2023-04-13T08:27:28.158Z,8.30
2023-04-13T08:30:00.809Z,8.40
2023-04-13T08:32:30.302Z,8.40
2023-04-13T08:34:58.473Z,8.40
2023-04-13T08:37:29.132Z,8.40
2023-04-13T08:40:00.468Z,8.40
2023-04-13T08:42:29.374Z,8.50
2023-04-13T08:44:59.334Z,8.50
2023-04-13T08:47:29.099Z,8.60
2023-04-13T08:49:59.908Z,8.60
2023-04-13T08:52:28.443Z,8.60
2023-04-13T08:54:58.285Z,8.60
2023-04-13T08:57:26.290Z,8.70
2023-04-13T08:59:54.418Z,8.70
2023-04-13T09:02:26.199Z,8.60
2023-04-13T09:04:56.336Z,8.70
2023-04-13T09:07:30.791Z,8.60
2023-04-13T09:09:59.872Z,8.60
2023-04-13T09:12:28.167Z,8.50
2023-04-13T09:14:56.276Z,8.50
2023-04-13T09:17:26.887Z,8.50
2023-04-13T09:19:56.186Z,8.60
2023-04-13T09:22:25.932Z,8.60
2023-04-13T09:24:53.911Z,8.70
2023-04-13T09:27:23.261Z,8.80
2023-04-13T09:29:53.090Z,8.90
2023-04-13T09:32:22.515Z,8.90
2023-04-13T09:35:01.434Z,8.90
2023-04-13T09:37:32.442Z,9.00
2023-04-13T09:40:10.659Z,9.00
2023-04-13T09:42:39.462Z,9.00
2023-04-13T09:45:08.601Z,9.10
2023-04-13T09:47:38.794Z,9.10
2023-04-13T09:50:17.626Z,9.10
2023-04-13T09:52:47.081Z,9.10
2023-04-13T09:55:17.740Z,9.20
2023-04-13T09:57:45.764Z,9.30
2023-04-13T10:00:20.598Z,9.50
2023-04-13T10:02:50.486Z,9.60
2023-04-13T10:05:18.868Z,9.50
2023-04-13T10:07:56.218Z,9.50
2023-04-13T10:10:26.412Z,9.40
2023-04-13T10:12:58.705Z,9.40
2023-04-13T10:15:37.714Z,9.50
2023-04-13T10:18:16.878Z,9.60
2023-04-13T10:20:45.785Z,9.50
2023-04-13T10:23:15.324Z,9.60
2023-04-13T10:25:50.931Z,9.70
2023-04-13T10:28:19.359Z,9.90
2023-04-13T10:30:50.944Z,10.20
2023-04-13T10:33:19.024Z,10.70
2023-04-13T10:35:58.022Z,11.10
2023-04-13T10:38:27.529Z,11.60
2023-04-13T10:40:55.398Z,11.80
2023-04-13T10:43:30.312Z,12.10
2023-04-13T10:46:08.783Z,12.60
2023-04-13T10:48:37.190Z,13.00
2023-04-13T10:51:05.315Z,13.00
2023-04-13T10:53:35.316Z,12.80
2023-04-13T10:56:05.083Z,12.80
2023-04-13T10:58:33.406Z,13.20
2023-04-13T11:01:03.263Z,13.40
2023-04-13T11:03:31.307Z,13.30
2023-04-13T11:06:01.049Z,13.30
2023-04-13T11:08:30.382Z,14.00
2023-04-13T11:10:59.717Z,14.30
2023-04-13T11:13:29.744Z,14.20
2023-04-13T11:16:05.085Z,13.50
2023-04-13T11:18:33.328Z,13.20
2023-04-13T11:21:04.700Z,12.70
2023-04-13T11:23:36.191Z,12.10
2023-04-13T11:26:05.658Z,11.40
2023-04-13T11:28:40.858Z,11.00
2023-04-13T11:31:09.039Z,11.10
2023-04-13T11:33:39.518Z,11.70
2023-04-13T11:36:09.659Z,12.60
2023-04-13T11:38:40.574Z,13.40
2023-04-13T11:43:42.055Z,14.40
2023-04-13T11:46:12.754Z,14.60
2023-04-13T11:48:41.344Z,14.20
2023-04-13T11:51:11.054Z,14.70
2023-04-13T11:53:39.519Z,15.40
2023-04-13T11:56:09.641Z,15.40
2023-04-13T11:58:38.861Z,15.20
2023-04-13T12:01:13.999Z,15.50
2023-04-13T12:03:57.488Z,15.60
2023-04-13T12:06:35.132Z,15.30
2023-04-13T12:09:10.708Z,15.30
2023-04-13T12:11:46.718Z,15.90
2023-04-13T12:19:27.588Z,16.40
2023-04-13T12:21:57.330Z,16.70
2023-04-13T12:24:33.777Z,16.90
2023-04-13T12:29:40.907Z,17.20
2023-04-13T12:32:14.265Z,17.40
2023-04-13T12:34:42.958Z,17.40
2023-04-13T12:37:11.217Z,18.10
2023-04-13T12:39:39.500Z,18.60
2023-04-13T12:42:08.727Z,18.90
2023-04-13T12:44:36.695Z,18.30
2023-04-13T12:47:06.006Z,17.20
2023-04-13T12:49:33.860Z,16.50
2023-04-13T12:52:01.678Z,15.30
2023-04-13T12:54:30.778Z,14.50
2023-04-13T12:56:59.659Z,14.00
2023-04-13T12:59:28.810Z,13.80
2023-04-13T13:01:56.864Z,13.20
2023-04-13T13:04:24.928Z,12.70
2023-04-13T13:06:52.884Z,12.40
2023-04-13T13:09:20.752Z,12.10
2023-04-13T13:11:48.632Z,11.90
2023-04-13T13:14:16.480Z,11.70
2023-04-13T13:16:45.779Z,11.60
2023-04-13T13:19:13.601Z,11.20
2023-04-13T13:21:41.437Z,10.90
2023-04-13T13:24:09.457Z,10.80
2023-04-13T13:27:00.330Z,10.70
2023-04-13T13:29:25.380Z,10.60
2023-04-13T13:31:54.608Z,10.70
2023-04-13T13:34:22.510Z,10.90
2023-04-13T13:36:50.884Z,11.10
2023-04-13T13:39:21.020Z,11.40
2023-04-13T13:41:48.946Z,12.00
2023-04-13T13:44:17.437Z,13.00
2023-04-13T13:46:45.328Z,13.60
2023-04-13T13:49:14.480Z,13.70
2023-04-13T13:51:43.328Z,14.00
2023-04-13T13:54:11.150Z,14.10
2023-04-13T13:56:38.985Z,14.10
2023-04-13T13:59:06.826Z,14.10
2023-04-13T14:01:34.696Z,14.30
2023-04-13T14:04:02.659Z,14.60
2023-04-13T14:06:32.801Z,15.00
2023-04-13T14:09:00.823Z,15.50
2023-04-13T14:11:28.829Z,15.60
2023-04-13T14:13:56.677Z,15.80
2023-04-13T14:16:24.695Z,16.20
2023-04-13T14:18:52.709Z,16.60
2023-04-13T14:21:22.927Z,17.20
2023-04-13T14:23:52.160Z,17.70
2023-04-13T14:26:20.049Z,18.50
2023-04-13T14:28:47.876Z,18.80
2023-04-13T14:31:16.080Z,18.10
2023-04-13T14:33:44.366Z,17.60
2023-04-13T14:36:15.130Z,17.20
2023-04-13T14:38:43.241Z,16.60
2023-04-13T14:41:12.456Z,15.70
2023-04-13T14:43:40.357Z,15.50
2023-04-13T14:46:08.771Z,15.60
2023-04-13T14:48:36.621Z,15.70
2023-04-13T14:51:04.848Z,15.10
2023-04-13T14:53:32.679Z,14.40
2023-04-13T14:56:00.968Z,14.00
2023-04-13T14:58:30.150Z,13.50
2023-04-13T15:00:57.937Z,13.10
2023-04-13T15:03:26.437Z,12.70
2023-04-13T15:06:01.303Z,12.30
2023-04-13T15:08:31.512Z,11.90
2023-04-13T15:10:59.589Z,11.60
2023-04-13T15:13:27.406Z,11.50
2023-04-13T15:15:56.627Z,11.10
2023-04-13T15:18:24.456Z,10.80
2023-04-13T15:20:52.259Z,10.80
2023-04-13T15:23:20.304Z,10.60
2023-04-13T15:25:48.249Z,10.50
2023-04-13T15:28:16.230Z,10.40
2023-04-13T15:30:44.036Z,10.40
2023-04-13T15:33:13.296Z,10.50
2023-04-13T15:35:41.604Z,10.60
2023-04-13T15:38:10.087Z,10.60
2023-04-13T15:40:37.977Z,10.70
2023-04-13T15:43:06.617Z,10.60
2023-04-13T15:45:34.449Z,10.60
2023-04-13T15:48:02.713Z,10.60
2023-04-13T15:50:31.999Z,10.70
2023-04-13T15:52:59.793Z,10.70
2023-04-13T15:55:27.964Z,10.70
2023-04-13T15:57:57.060Z,10.80
2023-04-13T16:00:26.082Z,11.00
2023-04-13T16:02:54.127Z,11.00
2023-04-13T16:05:22.314Z,11.00
2023-04-13T16:07:52.542Z,11.00
2023-04-13T16:10:20.741Z,11.00
2023-04-13T16:12:49.922Z,11.10
2023-04-13T16:15:19.141Z,11.40
2023-04-13T16:17:48.242Z,11.60
2023-04-13T16:20:20.227Z,11.60
2023-04-13T16:22:52.096Z,11.70
2023-04-13T16:25:21.426Z,11.70
2023-04-13T16:27:49.893Z,11.70
2023-04-13T16:30:20.722Z,11.80
2023-04-13T16:32:49.596Z,11.70
2023-04-13T16:35:17.479Z,11.80
2023-04-13T16:37:45.557Z,11.70
2023-04-13T16:40:15.116Z,11.60
2023-04-13T16:42:44.282Z,11.60
2023-04-13T16:45:15.024Z,11.60
2023-04-13T16:47:43.441Z,11.50
2023-04-13T16:50:12.204Z,11.40
2023-04-13T16:52:40.531Z,11.30
2023-04-13T16:55:12.417Z,11.30
2023-04-13T16:57:40.250Z,11.30
2023-04-13T17:00:11.323Z,11.30
2023-04-13T17:02:41.053Z,11.40
2023-04-13T17:05:10.599Z,11.50
2023-04-13T17:07:39.421Z,11.50
2023-04-13T17:10:08.813Z,11.50
2023-04-13T17:12:36.958Z,11.40
2023-04-13T17:15:06.006Z,11.50
2023-04-13T17:17:35.626Z,11.50
2023-04-13T17:20:03.826Z,11.50
2023-04-13T17:22:31.653Z,11.50
2023-04-13T17:24:59.554Z,11.40
2023-04-13T17:27:27.411Z,11.40
2023-04-13T17:29:55.273Z,11.20
2023-04-13T17:32:23.125Z,11.20
2023-04-13T17:34:52.299Z,11.10
2023-04-13T17:37:20.358Z,11.00
2023-04-13T17:39:50.681Z,11.00
2023-04-13T17:42:19.020Z,11.00
2023-04-13T17:44:47.141Z,10.90
2023-04-13T17:47:15.132Z,10.90
2023-04-13T17:49:42.919Z,10.90
2023-04-13T17:52:12.085Z,10.90
2023-04-13T17:54:40.572Z,10.70
2023-04-13T17:57:08.465Z,10.60
2023-04-13T17:59:36.335Z,10.50
2023-04-13T18:02:04.223Z,10.50
2023-04-13T18:04:32.975Z,10.40
2023-04-13T18:07:01.591Z,10.40
2023-04-13T18:09:31.252Z,10.50
2023-04-13T18:11:59.127Z,10.50
2023-04-13T18:14:26.919Z,10.50
2023-04-13T18:16:54.794Z,10.50
2023-04-13T18:19:22.713Z,10.50
2023-04-13T18:21:50.586Z,10.50
2023-04-13T18:24:18.397Z,10.40
2023-04-13T18:26:47.511Z,10.50
2023-04-13T18:29:15.539Z,10.40
2023-04-13T18:31:43.517Z,10.30
2023-04-13T18:34:14.290Z,10.30
2023-04-13T18:36:42.853Z,10.30
2023-04-13T18:39:10.725Z,10.20
2023-04-13T18:41:41.695Z,10.10
2023-04-13T18:44:11.635Z,10.00
2023-04-13T18:46:39.564Z,10.00
2023-04-13T18:49:07.562Z,10.00
2023-04-13T18:51:35.699Z,9.80
2023-04-13T18:54:04.453Z,9.80
2023-04-13T18:56:32.262Z,9.70
2023-04-13T18:59:00.219Z,9.60
2023-04-13T19:01:29.421Z,9.60
2023-04-13T19:03:57.873Z,9.50
2023-04-13T19:06:26.904Z,9.50
2023-04-13T19:08:54.733Z,9.40
2023-04-13T19:11:27.267Z,9.40
2023-04-13T19:13:55.262Z,9.30
2023-04-13T19:16:23.587Z,9.30
2023-04-13T19:18:52.836Z,9.30
2023-04-13T19:21:23.770Z,9.20
2023-04-13T19:23:51.616Z,9.20
2023-04-13T19:26:19.478Z,9.20
2023-04-13T19:28:48.184Z,9.10
2023-04-13T19:31:16.117Z,9.00
2023-04-13T19:33:46.144Z,8.90
2023-04-13T19:36:15.683Z,8.80
2023-04-13T19:38:45.062Z,8.80
2023-04-13T19:41:14.099Z,8.70
2023-04-13T19:43:41.961Z,8.70
2023-04-13T19:46:09.893Z,8.70
2023-04-13T19:48:38.605Z,8.60
2023-04-13T19:51:06.695Z,8.60
2023-04-13T19:53:38.041Z,8.60
2023-04-13T19:56:06.333Z,8.50
2023-04-13T19:58:34.450Z,8.50
2023-04-13T20:01:02.311Z,8.50
2023-04-13T20:03:30.378Z,8.40
2023-04-13T20:05:59.383Z,8.10
2023-04-13T20:08:27.293Z,8.00
2023-04-13T20:10:57.962Z,7.80
2023-04-13T20:13:27.315Z,7.70
2023-04-13T20:15:55.239Z,7.70
2023-04-13T20:18:23.164Z,7.60
2023-04-13T20:20:51.264Z,7.70
2023-04-13T20:23:19.173Z,7.70
2023-04-13T20:25:46.967Z,7.70
2023-04-13T20:28:17.659Z,7.80
2023-04-13T20:30:45.753Z,7.80
2023-04-13T20:33:13.671Z,7.80
2023-04-13T20:35:41.575Z,7.80
2023-04-13T20:38:09.849Z,7.80
2023-04-13T20:40:37.750Z,7.70
2023-04-13T20:43:06.287Z,7.70
2023-04-13T20:45:36.371Z,7.70
2023-04-13T20:48:48.400Z,7.70
2023-04-13T20:50:53.526Z,7.70
2023-04-13T20:53:21.518Z,7.70
2023-04-13T20:55:49.390Z,7.70
2023-04-13T20:58:17.194Z,7.70
2023-04-13T21:00:46.512Z,7.70
2023-04-13T21:03:14.654Z,7.70
2023-04-13T21:05:42.635Z,7.70
2023-04-13T21:08:11.748Z,7.60
2023-04-13T21:10:39.621Z,7.50
2023-04-13T21:13:10.513Z,7.50
2023-04-13T21:15:38.383Z,7.50
2023-04-13T21:18:07.820Z,7.50
2023-04-13T21:20:35.731Z,7.50
2023-04-13T21:23:03.555Z,7.50
2023-04-13T21:25:31.323Z,7.40
2023-04-13T21:27:59.178Z,7.40
2023-04-13T21:30:26.987Z,7.30
2023-04-13T21:33:32.031Z,7.30
2023-04-13T21:36:51.422Z,7.20
2023-04-13T21:38:49.077Z,7.20
2023-04-13T21:41:17.627Z,7.20
2023-04-13T21:43:45.713Z,7.20
2023-04-13T21:46:14.926Z,7.20
2023-04-13T21:48:43.136Z,7.10
2023-04-13T21:51:14.054Z,7.10
2023-04-13T21:53:43.068Z,7.00
2023-04-13T21:56:11.375Z,6.90
2023-04-13T21:58:41.379Z,6.90
2023-04-13T22:01:14.614Z,6.80
2023-04-13T22:03:47.843Z,6.70
2023-04-13T22:06:17.226Z,6.70
2023-04-13T22:08:45.210Z,6.70
2023-04-13T22:11:13.008Z,6.60
2023-04-13T22:13:42.074Z,6.70
2023-04-13T22:16:10.763Z,6.90
2023-04-13T22:18:38.675Z,7.20
2023-04-13T22:21:06.903Z,7.50
2023-04-13T22:23:36.124Z,7.70
2023-04-13T22:26:04.017Z,7.90
2023-04-13T22:28:32.758Z,8.10
2023-04-13T22:31:07.096Z,8.10
2023-04-13T22:33:36.783Z,8.30
2023-04-13T22:39:53.366Z,8.50
2023-04-13T22:42:21.175Z,8.70
2023-04-13T22:44:48.993Z,8.80
2023-04-13T22:47:16.832Z,8.80
2023-04-13T22:49:44.605Z,8.90
2023-04-13T22:52:12.731Z,8.90
2023-04-13T22:54:40.549Z,8.90
2023-04-13T22:57:09.669Z,8.90
2023-04-13T22:59:37.493Z,8.90
2023-04-13T23:02:05.532Z,9.00
2023-04-13T23:04:33.557Z,9.00
2023-04-13T23:07:01.592Z,9.10
2023-04-13T23:09:29.553Z,9.20
2023-04-13T23:11:58.678Z,9.30
2023-04-13T23:14:27.995Z,9.30
2023-04-13T23:16:55.948Z,9.30
2023-04-13T23:19:23.802Z,9.40
2023-04-13T23:21:51.621Z,9.50
2023-04-13T23:24:19.440Z,9.50
2023-04-13T23:26:48.447Z,9.40
2023-04-13T23:29:16.397Z,9.40
2023-04-13T23:31:45.758Z,9.30
2023-04-13T23:34:14.496Z,9.30
2023-04-13T23:36:42.405Z,9.20
2023-04-13T23:39:10.233Z,9.10
2023-04-13T23:41:38.038Z,8.90
2023-04-13T23:44:05.887Z,8.80
2023-04-13T23:46:33.929Z,8.90
2023-04-13T23:49:03.097Z,8.90
2023-04-13T23:51:31.164Z,8.90
2023-04-13T23:53:59.072Z,8.70
2023-04-13T23:56:27.221Z,8.60
2023-04-13T23:58:55.283Z,8.50
